Flanders, New York
Current Conditions -  °F | °C
As of 2:53 PM on Sunday 23 Nov 2014 (Local Time) from KFOK Reporting Station
Clear Clear  
Wind Chill: 52°   Ceiling: Unl
Heat Index: 52°   Visibility: 10mi
Dew Point: 35°   Wind: 10mph
Humidity: 53%   Direction: 230°SW
Pressure: 30.16"   Gusts: NA
Location:  40.953°N, 72.642°W
Report Text: KFOK 231953Z 23009KT 10SM CLR 11/02 A3016 RMK AO2 SLP215 T01110017
Loading
Personal Weather Stations






























Interactive Weather Map New forecast layout! Learn more

10-Day Weather Forecast

Advertisements
Track Severe Weather on mobile